createdAt,value
2023-05-05T00:00:50.195Z,720.51
2023-05-05T00:01:50.241Z,721.36
2023-05-05T00:02:50.187Z,722.27
2023-05-05T00:03:50.334Z,722.79
2023-05-05T00:04:52.940Z,723.35
2023-05-05T00:05:50.173Z,723.34
2023-05-05T00:06:50.161Z,723.73
2023-05-05T00:07:50.127Z,724.57
2023-05-05T00:08:50.134Z,723.73
2023-05-05T00:09:50.080Z,723.09
2023-05-05T00:10:50.092Z,723.27
2023-05-05T00:11:50.089Z,722.23
2023-05-05T00:12:50.095Z,721.88
2023-05-05T00:13:50.090Z,721.27
2023-05-05T00:14:50.051Z,720.90
2023-05-05T00:15:50.059Z,720.59
2023-05-05T00:16:50.043Z,720.53
2023-05-05T00:17:50.049Z,720.39
2023-05-05T00:18:49.985Z,720.65
2023-05-05T00:19:49.988Z,720.91
2023-05-05T00:20:50.016Z,721.15
2023-05-05T00:21:49.974Z,721.52
2023-05-05T00:22:49.974Z,721.71
2023-05-05T00:23:49.992Z,721.77
2023-05-05T00:24:49.922Z,722.43
2023-05-05T00:25:49.951Z,723.12
2023-05-05T00:26:49.915Z,723.99
2023-05-05T00:27:50.231Z,724.48
2023-05-05T00:28:49.889Z,724.70
2023-05-05T00:29:49.877Z,725.32
2023-05-05T00:30:49.890Z,726.39
2023-05-05T00:31:49.848Z,727.75
2023-05-05T00:32:49.847Z,728.52
2023-05-05T00:33:49.872Z,728.61
2023-05-05T00:34:49.826Z,728.51
2023-05-05T00:35:49.822Z,728.59
2023-05-05T00:36:49.810Z,728.87
2023-05-05T00:37:49.823Z,728.72
2023-05-05T00:38:49.797Z,728.54
2023-05-05T00:39:49.755Z,728.04
2023-05-05T00:40:49.754Z,727.71
2023-05-05T00:41:49.753Z,727.57
2023-05-05T00:42:49.735Z,727.19
2023-05-05T00:43:49.752Z,727.04
2023-05-05T00:44:49.715Z,726.92
2023-05-05T00:45:49.709Z,727.08
2023-05-05T00:46:49.769Z,727.20
2023-05-05T00:47:49.710Z,728.03
2023-05-05T00:48:49.704Z,728.76
2023-05-05T00:49:49.662Z,729.39
2023-05-05T00:50:49.663Z,730.17
2023-05-05T00:51:49.629Z,731.12
2023-05-05T00:52:49.637Z,731.50
2023-05-05T00:53:49.617Z,731.44
2023-05-05T00:54:49.628Z,731.88
2023-05-05T00:55:49.613Z,731.70
2023-05-05T00:56:49.583Z,731.82
2023-05-05T00:57:49.596Z,731.75
2023-05-05T00:58:49.602Z,732.12
2023-05-05T00:59:49.548Z,732.65
2023-05-05T01:00:49.556Z,733.10
2023-05-05T01:01:49.596Z,733.26
2023-05-05T01:02:49.589Z,733.84
2023-05-05T01:03:49.576Z,734.17
2023-05-05T01:04:49.513Z,734.52
2023-05-05T01:05:49.501Z,735.31
2023-05-05T01:06:49.797Z,735.51
2023-05-05T01:07:49.460Z,735.87
2023-05-05T01:08:49.449Z,735.41
2023-05-05T01:09:53.566Z,735.20
2023-05-05T01:10:50.790Z,735.48
2023-05-05T01:11:49.433Z,735.96
2023-05-05T01:12:49.796Z,736.86
2023-05-05T01:13:49.403Z,737.06
2023-05-05T01:14:49.400Z,737.55
2023-05-05T01:15:49.400Z,738.18
2023-05-05T01:16:49.393Z,739.04
2023-05-05T01:17:49.443Z,739.10
2023-05-05T01:18:49.347Z,739.63
2023-05-05T01:19:49.392Z,740.25
2023-05-05T01:20:49.327Z,740.88
2023-05-05T01:21:49.331Z,741.20
2023-05-05T01:22:49.308Z,741.32
2023-05-05T01:23:49.593Z,741.55
2023-05-05T01:24:49.265Z,741.73
2023-05-05T01:25:49.266Z,741.83
2023-05-05T01:26:49.257Z,742.54
2023-05-05T01:27:49.252Z,743.62
2023-05-05T01:28:49.249Z,744.87
2023-05-05T01:29:49.222Z,746.41
2023-05-05T01:30:49.209Z,747.04
2023-05-05T01:31:49.257Z,747.26
2023-05-05T01:32:57.233Z,747.11
2023-05-05T01:33:57.200Z,746.93
2023-05-05T01:34:56.178Z,747.14
2023-05-05T01:35:57.198Z,747.00
2023-05-05T01:36:49.125Z,746.99
2023-05-05T01:37:57.654Z,747.23
2023-05-05T01:38:49.109Z,747.61
2023-05-05T01:39:49.123Z,747.59
2023-05-05T01:40:49.082Z,747.36
2023-05-05T01:41:49.080Z,747.48
2023-05-05T01:42:49.085Z,747.48
2023-05-05T01:43:49.061Z,747.31
2023-05-05T01:44:49.047Z,747.40
2023-05-05T01:45:49.062Z,747.66
2023-05-05T01:46:49.023Z,747.90
2023-05-05T01:47:49.057Z,748.29
2023-05-05T01:48:48.992Z,748.39
2023-05-05T01:49:49.005Z,748.74
2023-05-05T01:50:48.988Z,749.17
2023-05-05T01:51:48.980Z,749.31
2023-05-05T01:52:48.974Z,749.61
2023-05-05T01:53:48.942Z,749.60
2023-05-05T01:54:48.961Z,749.96
2023-05-05T01:55:49.029Z,750.25
2023-05-05T01:56:49.737Z,750.27
2023-05-05T01:57:48.917Z,750.58
2023-05-05T01:58:48.884Z,750.90
2023-05-05T01:59:48.909Z,751.41
2023-05-05T02:00:49.146Z,751.92
2023-05-05T02:01:48.877Z,751.97
2023-05-05T02:02:48.911Z,752.17
2023-05-05T02:03:48.820Z,752.33
2023-05-05T02:04:48.822Z,752.52
2023-05-05T02:05:48.821Z,752.85
2023-05-05T02:06:48.805Z,753.62
2023-05-05T02:07:48.783Z,754.13
2023-05-05T02:08:48.781Z,754.56
2023-05-05T02:09:48.766Z,755.15
2023-05-05T02:10:48.758Z,754.71
2023-05-05T02:11:48.746Z,754.67
2023-05-05T02:12:48.784Z,755.20
2023-05-05T02:13:48.773Z,755.06
2023-05-05T02:14:48.722Z,755.25
2023-05-05T02:15:48.718Z,756.01
2023-05-05T02:16:48.702Z,756.32
2023-05-05T02:17:48.693Z,756.66
2023-05-05T02:18:48.677Z,757.04
2023-05-05T02:19:48.651Z,757.45
2023-05-05T02:20:48.648Z,758.05
2023-05-05T02:21:48.672Z,758.77
2023-05-05T02:22:48.622Z,759.08
2023-05-05T02:23:48.616Z,759.40
2023-05-05T02:24:48.627Z,759.33
2023-05-05T02:25:48.589Z,759.69
2023-05-05T02:26:48.584Z,760.39
2023-05-05T02:27:48.612Z,761.44
2023-05-05T02:28:48.563Z,762.30
2023-05-05T02:29:48.538Z,763.14
2023-05-05T02:30:48.838Z,763.19
2023-05-05T02:31:48.590Z,763.92
2023-05-05T02:32:48.848Z,764.83
2023-05-05T02:33:48.504Z,764.87
2023-05-05T02:34:48.491Z,765.56
2023-05-05T02:35:48.483Z,765.85
2023-05-05T02:36:48.522Z,766.46
2023-05-05T02:37:48.485Z,766.81
2023-05-05T02:38:48.472Z,767.17
2023-05-05T02:39:48.450Z,767.55
2023-05-05T02:40:48.419Z,767.98
2023-05-05T02:41:48.426Z,768.82
2023-05-05T02:42:49.125Z,769.03
2023-05-05T02:43:48.411Z,769.86
2023-05-05T02:44:48.373Z,770.28
2023-05-05T02:45:48.392Z,770.48
2023-05-05T02:46:48.466Z,770.65
2023-05-05T02:47:48.429Z,770.26
2023-05-05T02:48:48.357Z,770.00
2023-05-05T02:49:48.339Z,769.47
2023-05-05T02:50:48.328Z,769.26
2023-05-05T02:51:48.299Z,769.12
2023-05-05T02:52:49.026Z,768.78
2023-05-05T02:53:48.301Z,768.23
2023-05-05T02:54:48.266Z,767.95
2023-05-05T02:55:48.257Z,767.64
2023-05-05T02:56:48.272Z,766.92
2023-05-05T02:57:48.224Z,766.71
2023-05-05T02:58:48.215Z,766.07
2023-05-05T02:59:48.196Z,765.77
2023-05-05T03:00:48.228Z,765.79
2023-05-05T03:01:48.215Z,765.80
2023-05-05T03:02:48.238Z,765.94
2023-05-05T03:03:48.338Z,765.69
2023-05-05T03:04:48.140Z,765.27
2023-05-05T03:05:48.139Z,764.92
2023-05-05T03:06:48.194Z,764.66
2023-05-05T03:07:48.113Z,763.83
2023-05-05T03:08:48.092Z,763.84
2023-05-05T03:09:48.090Z,762.99
2023-05-05T03:10:48.092Z,762.42
2023-05-05T03:11:48.083Z,762.30
2023-05-05T03:12:48.085Z,762.50
2023-05-05T03:13:48.030Z,762.49
2023-05-05T03:14:48.054Z,762.64
2023-05-05T03:15:48.071Z,762.60
2023-05-05T03:16:48.011Z,762.20
2023-05-05T03:17:48.057Z,761.51
2023-05-05T03:18:47.978Z,761.06
2023-05-05T03:19:47.981Z,760.86
2023-05-05T03:20:47.965Z,760.80
2023-05-05T03:21:47.980Z,760.72
2023-05-05T03:22:47.965Z,760.76
2023-05-05T03:23:47.943Z,760.74
2023-05-05T03:24:47.911Z,760.99
2023-05-05T03:25:47.903Z,761.04
2023-05-05T03:26:55.898Z,761.27
2023-05-05T03:27:47.881Z,761.58
2023-05-05T03:28:47.859Z,761.54
2023-05-05T03:29:47.884Z,761.85
2023-05-05T03:30:47.833Z,762.14
2023-05-05T03:31:48.616Z,762.61
2023-05-05T03:32:47.856Z,762.88
2023-05-05T03:33:47.809Z,762.98
2023-05-05T03:34:47.804Z,762.72
2023-05-05T03:35:47.841Z,763.08
2023-05-05T03:36:48.074Z,763.33
2023-05-05T03:37:47.779Z,763.36
2023-05-05T03:38:47.756Z,763.46
2023-05-05T03:39:47.733Z,764.03
2023-05-05T03:40:47.739Z,764.47
2023-05-05T03:41:47.761Z,764.65
2023-05-05T03:42:47.756Z,764.99
2023-05-05T03:43:47.689Z,765.57
2023-05-05T03:44:47.698Z,765.60
2023-05-05T03:45:47.795Z,765.86
2023-05-05T03:46:47.662Z,766.45
2023-05-05T03:47:47.954Z,767.16
2023-05-05T03:48:47.623Z,767.82
2023-05-05T03:49:47.634Z,768.51
2023-05-05T03:50:47.608Z,769.57
2023-05-05T03:51:47.622Z,770.10
2023-05-05T03:52:47.824Z,770.90
2023-05-05T03:53:47.582Z,771.43
2023-05-05T03:54:47.576Z,772.42
2023-05-05T03:55:47.573Z,773.12
2023-05-05T03:56:47.570Z,773.91
2023-05-05T03:57:47.532Z,774.48
2023-05-05T03:58:47.536Z,775.31
2023-05-05T03:59:47.532Z,776.14
2023-05-05T04:00:47.792Z,777.10
2023-05-05T04:01:47.502Z,777.78
2023-05-05T04:02:47.536Z,778.63
2023-05-05T04:03:47.549Z,779.63
2023-05-05T04:04:47.461Z,780.14
2023-05-05T04:05:47.476Z,781.22
2023-05-05T04:06:47.443Z,782.47
2023-05-05T04:07:47.431Z,783.39
2023-05-05T04:08:47.424Z,784.05
2023-05-05T04:09:47.398Z,784.72
2023-05-05T04:10:47.372Z,785.03
2023-05-05T04:11:47.418Z,785.34
2023-05-05T04:12:47.372Z,785.66
2023-05-05T04:13:47.362Z,786.44
2023-05-05T04:14:47.330Z,786.63
2023-05-05T04:15:47.380Z,787.00
2023-05-05T04:16:47.327Z,787.77
2023-05-05T04:17:47.344Z,788.70
2023-05-05T04:18:47.294Z,789.88
2023-05-05T04:19:47.280Z,791.10
2023-05-05T04:20:47.274Z,792.29
2023-05-05T04:21:47.287Z,793.08
2023-05-05T04:22:47.242Z,794.19
2023-05-05T04:23:47.223Z,794.52
2023-05-05T04:24:47.229Z,794.77
2023-05-05T04:25:47.226Z,795.05
2023-05-05T04:26:47.189Z,795.04
2023-05-05T04:27:47.247Z,794.86
2023-05-05T04:28:47.180Z,794.53
2023-05-05T04:29:47.165Z,793.89
2023-05-05T04:30:47.262Z,793.53
2023-05-05T04:31:47.342Z,793.73
2023-05-05T04:32:47.166Z,793.64
2023-05-05T04:33:47.113Z,793.33
2023-05-05T04:34:47.108Z,793.22
2023-05-05T04:35:47.088Z,793.26
2023-05-05T04:36:47.134Z,793.42
2023-05-05T04:37:47.080Z,793.10
2023-05-05T04:38:49.848Z,792.87
2023-05-05T04:39:47.050Z,793.13
2023-05-05T04:40:47.055Z,793.32
2023-05-05T04:41:47.052Z,793.13
2023-05-05T04:42:47.051Z,792.67
2023-05-05T04:43:47.001Z,792.26
2023-05-05T04:44:48.775Z,792.39
2023-05-05T04:45:46.994Z,792.70
2023-05-05T04:46:47.014Z,791.50
2023-05-05T04:47:47.039Z,789.71
2023-05-05T04:48:46.951Z,788.76
2023-05-05T04:49:46.918Z,787.70
2023-05-05T04:50:46.938Z,787.13
2023-05-05T04:51:46.946Z,787.39
2023-05-05T04:52:46.905Z,787.10
2023-05-05T04:53:46.901Z,786.75
2023-05-05T04:54:46.908Z,785.70
2023-05-05T04:55:46.860Z,784.94
2023-05-05T04:56:46.892Z,783.55
2023-05-05T04:57:46.859Z,782.09
2023-05-05T04:58:46.842Z,780.21
2023-05-05T04:59:46.825Z,779.25
2023-05-05T05:00:46.826Z,777.63
2023-05-05T05:01:46.855Z,775.34
2023-05-05T05:02:46.856Z,773.48
2023-05-05T05:03:46.914Z,773.76
2023-05-05T05:04:46.755Z,774.62
2023-05-05T05:05:47.478Z,775.92
2023-05-05T05:06:46.773Z,778.15
2023-05-05T05:07:46.728Z,776.62
2023-05-05T05:08:46.700Z,774.93
2023-05-05T05:09:46.749Z,773.79
2023-05-05T05:10:46.709Z,775.71
2023-05-05T05:11:46.685Z,774.49
2023-05-05T05:12:46.689Z,771.09
2023-05-05T05:13:46.668Z,770.24
2023-05-05T05:14:46.653Z,770.23
2023-05-05T05:15:46.761Z,770.03
2023-05-05T05:16:46.724Z,770.23
2023-05-05T05:17:46.652Z,770.27
2023-05-05T05:18:46.600Z,770.86
2023-05-05T05:19:46.605Z,771.38
2023-05-05T05:20:55.143Z,771.01
2023-05-05T05:21:46.639Z,770.27
2023-05-05T05:22:46.544Z,769.37
2023-05-05T05:23:46.542Z,769.13
2023-05-05T05:24:46.531Z,769.63
2023-05-05T05:25:46.539Z,771.48
2023-05-05T05:26:46.525Z,771.94
2023-05-05T05:27:50.160Z,773.02
2023-05-05T05:28:47.505Z,774.16
2023-05-05T05:29:46.517Z,775.22
2023-05-05T05:30:46.486Z,777.71
2023-05-05T05:31:49.295Z,780.87
2023-05-05T05:32:46.499Z,783.45
2023-05-05T05:33:46.422Z,786.64
2023-05-05T05:34:46.411Z,791.55
2023-05-05T05:35:46.427Z,795.26
2023-05-05T05:36:46.417Z,792.10
2023-05-05T05:37:46.396Z,787.91
2023-05-05T05:38:46.395Z,782.23
2023-05-05T05:39:46.360Z,779.97
2023-05-05T05:40:46.361Z,777.93
2023-05-05T05:41:46.369Z,775.78
2023-05-05T05:42:46.331Z,779.71
2023-05-05T05:43:46.322Z,777.03
2023-05-05T05:44:46.303Z,776.49
2023-05-05T05:45:46.338Z,777.44
2023-05-05T05:46:46.293Z,781.99
2023-05-05T05:47:46.316Z,774.50
2023-05-05T05:48:46.262Z,772.36
2023-05-05T05:49:46.281Z,768.21
2023-05-05T05:50:46.255Z,768.99
2023-05-05T05:51:46.241Z,771.51
2023-05-05T05:52:46.219Z,772.06
2023-05-05T05:53:46.207Z,768.97
2023-05-05T05:54:46.213Z,764.11
2023-05-05T05:55:46.183Z,761.40
2023-05-05T05:56:46.183Z,760.82
2023-05-05T05:57:46.154Z,759.86
2023-05-05T05:58:46.141Z,759.50
2023-05-05T05:59:46.145Z,758.60
2023-05-05T06:00:46.153Z,757.15
2023-05-05T06:01:46.132Z,755.86
2023-05-05T06:02:46.148Z,754.96
2023-05-05T06:03:46.350Z,754.34
2023-05-05T06:04:46.079Z,755.54
2023-05-05T06:05:46.086Z,754.35
2023-05-05T06:06:46.082Z,752.34
2023-05-05T06:07:46.058Z,750.79
2023-05-05T06:08:46.035Z,750.28
2023-05-05T06:09:46.050Z,750.06
2023-05-05T06:10:46.041Z,748.63
2023-05-05T06:11:45.995Z,748.37
2023-05-05T06:12:46.021Z,748.51
2023-05-05T06:13:45.971Z,748.74
2023-05-05T06:14:45.973Z,748.71
2023-05-05T06:15:46.757Z,748.61
2023-05-05T06:16:45.965Z,748.85
2023-05-05T06:17:45.938Z,749.72
2023-05-05T06:18:45.964Z,750.28
2023-05-05T06:19:46.789Z,750.88
2023-05-05T06:20:45.948Z,752.30
2023-05-05T06:21:45.932Z,752.79
2023-05-05T06:22:45.894Z,753.07
2023-05-05T06:23:45.874Z,753.50
2023-05-05T06:24:45.888Z,754.29
2023-05-05T06:25:45.852Z,754.94
2023-05-05T06:26:45.851Z,756.88
2023-05-05T06:27:45.820Z,757.87
2023-05-05T06:28:45.828Z,759.02
2023-05-05T06:29:45.813Z,760.67
2023-05-05T06:30:45.801Z,763.84
2023-05-05T06:31:45.892Z,761.26
2023-05-05T06:32:45.818Z,756.87
2023-05-05T06:33:45.781Z,758.43
2023-05-05T06:34:45.747Z,756.82
2023-05-05T06:35:45.741Z,754.57
2023-05-05T06:36:45.768Z,753.97
2023-05-05T06:37:45.728Z,753.00
2023-05-05T06:38:45.729Z,750.79
2023-05-05T06:39:45.704Z,750.06
2023-05-05T06:40:45.691Z,752.45
2023-05-05T06:41:45.704Z,753.74
2023-05-05T06:42:45.669Z,750.40
2023-05-05T06:43:45.647Z,754.23
2023-05-05T06:44:45.703Z,753.16
2023-05-05T06:45:45.656Z,757.38
2023-05-05T06:46:45.702Z,754.54
2023-05-05T06:47:45.696Z,755.63
2023-05-05T06:48:45.598Z,751.73
2023-05-05T06:49:45.573Z,750.60
2023-05-05T06:50:45.619Z,752.23
2023-05-05T06:51:45.562Z,759.20
2023-05-05T06:52:45.545Z,778.03
2023-05-05T06:53:45.557Z,785.56
2023-05-05T06:54:45.513Z,794.04
2023-05-05T06:55:45.513Z,764.22
2023-05-05T06:56:45.660Z,764.75
2023-05-05T06:57:45.492Z,769.85
2023-05-05T06:58:45.476Z,779.82
2023-05-05T06:59:45.466Z,755.54
2023-05-05T07:00:45.484Z,758.01
2023-05-05T07:01:45.446Z,755.82
2023-05-05T07:02:45.560Z,776.72
2023-05-05T07:03:45.671Z,824.23
2023-05-05T07:04:45.408Z,816.50
2023-05-05T07:05:45.402Z,779.58
2023-05-05T07:06:45.387Z,761.72
2023-05-05T07:07:45.368Z,759.97
2023-05-05T07:08:45.358Z,758.63
2023-05-05T07:09:45.339Z,772.83
2023-05-05T07:10:45.359Z,800.24
2023-05-05T07:11:45.309Z,829.44
2023-05-05T07:12:45.352Z,826.92
2023-05-05T07:13:45.330Z,856.04
2023-05-05T07:14:45.348Z,859.61
2023-05-05T07:15:52.412Z,853.42
2023-05-05T07:16:45.298Z,849.66
2023-05-05T07:17:45.323Z,859.09
2023-05-05T07:18:45.318Z,836.52
2023-05-05T07:19:45.379Z,803.63
2023-05-05T07:20:45.205Z,787.83
2023-05-05T07:21:45.247Z,767.03
2023-05-05T07:22:45.199Z,766.08
2023-05-05T07:23:45.212Z,764.86
2023-05-05T07:24:45.214Z,745.88
2023-05-05T07:25:45.183Z,753.41
2023-05-05T07:26:45.192Z,729.69
2023-05-05T07:27:45.190Z,746.46
2023-05-05T07:28:45.162Z,768.88
2023-05-05T07:29:45.214Z,746.35
2023-05-05T07:30:45.110Z,725.79
2023-05-05T07:31:45.159Z,730.99
2023-05-05T07:32:45.161Z,772.19
2023-05-05T07:33:45.098Z,761.21
2023-05-05T07:34:45.114Z,795.52
2023-05-05T07:35:45.081Z,787.25
2023-05-05T07:36:45.070Z,787.42
2023-05-05T07:37:45.047Z,783.57
2023-05-05T07:38:45.026Z,781.82
2023-05-05T07:39:45.034Z,764.28
2023-05-05T07:40:45.036Z,797.67
2023-05-05T07:41:45.031Z,777.90
2023-05-05T07:42:44.990Z,740.90
2023-05-05T07:43:44.980Z,730.93
2023-05-05T07:44:44.962Z,735.02
2023-05-05T07:45:44.972Z,725.02
2023-05-05T07:46:44.944Z,709.47
2023-05-05T07:47:44.967Z,710.96
2023-05-05T07:48:44.910Z,711.40
2023-05-05T07:49:44.915Z,721.66
2023-05-05T07:50:44.971Z,725.54
2023-05-05T07:51:44.888Z,725.62
2023-05-05T07:52:50.031Z,726.51
2023-05-05T07:53:45.860Z,723.18
2023-05-05T07:54:44.858Z,719.33
2023-05-05T07:55:44.865Z,722.58
2023-05-05T07:56:44.828Z,720.15
2023-05-05T07:57:44.813Z,719.62
2023-05-05T07:58:44.816Z,702.13
2023-05-05T07:59:44.792Z,706.92
2023-05-05T08:00:44.792Z,722.19
2023-05-05T08:01:44.784Z,713.22
2023-05-05T08:02:46.669Z,715.79
2023-05-05T08:03:44.851Z,704.20
2023-05-05T08:04:44.792Z,732.14
2023-05-05T08:05:44.762Z,714.70
2023-05-05T08:06:44.710Z,690.61
2023-05-05T08:07:44.699Z,691.53
2023-05-05T08:08:44.724Z,690.23
2023-05-05T08:09:44.664Z,683.08
2023-05-05T08:10:44.672Z,683.92
2023-05-05T08:11:44.688Z,687.38
2023-05-05T08:12:44.699Z,692.74
2023-05-05T08:13:44.726Z,695.62
2023-05-05T08:14:44.664Z,684.30
2023-05-05T08:15:45.000Z,690.50
2023-05-05T08:16:44.598Z,697.86
2023-05-05T08:17:44.667Z,701.85
2023-05-05T08:18:44.593Z,700.51
2023-05-05T08:19:44.580Z,704.29
2023-05-05T08:20:44.585Z,685.17
2023-05-05T08:21:44.544Z,684.32
2023-05-05T08:22:44.548Z,681.73
2023-05-05T08:23:44.543Z,688.49
2023-05-05T08:24:44.511Z,689.74
2023-05-05T08:25:44.520Z,708.76
2023-05-05T08:26:44.520Z,711.36
2023-05-05T08:27:44.488Z,709.79
2023-05-05T08:28:44.472Z,696.48
2023-05-05T08:29:44.492Z,696.18
2023-05-05T08:30:44.449Z,699.27
2023-05-05T08:31:44.471Z,697.80
2023-05-05T08:32:44.475Z,704.25
2023-05-05T08:33:44.415Z,708.05
2023-05-05T08:34:44.414Z,741.78
2023-05-05T08:35:44.408Z,774.19
2023-05-05T08:36:44.387Z,762.66
2023-05-05T08:37:44.378Z,779.12
2023-05-05T08:38:44.400Z,769.68
2023-05-05T08:39:44.345Z,804.79
2023-05-05T08:40:44.354Z,783.11
2023-05-05T08:41:44.360Z,711.07
2023-05-05T08:42:44.466Z,789.98
2023-05-05T08:43:44.311Z,756.50
2023-05-05T08:44:44.320Z,781.08
2023-05-05T08:45:44.294Z,791.19
2023-05-05T08:46:44.302Z,773.14
2023-05-05T08:47:44.292Z,725.44
2023-05-05T08:48:44.255Z,754.27
2023-05-05T08:49:44.236Z,701.65
2023-05-05T08:50:44.255Z,708.16
2023-05-05T08:51:44.226Z,740.38
2023-05-05T08:52:44.843Z,720.56
2023-05-05T08:53:44.217Z,696.79
2023-05-05T08:54:44.190Z,704.94
2023-05-05T08:55:44.198Z,717.09
2023-05-05T08:56:44.195Z,732.68
2023-05-05T08:57:44.155Z,713.73
2023-05-05T08:58:44.130Z,727.30
2023-05-05T08:59:44.139Z,741.00
2023-05-05T09:00:44.137Z,776.64
2023-05-05T09:01:44.152Z,833.45
2023-05-05T09:02:52.734Z,768.06
2023-05-05T09:03:44.101Z,712.93
2023-05-05T09:04:44.126Z,733.34
2023-05-05T09:05:44.076Z,705.57
2023-05-05T09:06:44.059Z,719.88
2023-05-05T09:07:52.062Z,744.43
2023-05-05T09:08:44.020Z,691.75
2023-05-05T09:09:44.010Z,694.68
2023-05-05T09:10:44.030Z,685.98
2023-05-05T09:11:44.007Z,672.99
2023-05-05T09:12:44.020Z,675.19
2023-05-05T09:13:43.988Z,676.46
2023-05-05T09:14:43.984Z,669.03
2023-05-05T09:15:44.013Z,659.96
2023-05-05T09:16:43.978Z,663.38
2023-05-05T09:17:43.959Z,664.90
2023-05-05T09:18:43.925Z,663.29
2023-05-05T09:19:43.894Z,663.92
2023-05-05T09:20:43.889Z,660.88
2023-05-05T09:21:43.888Z,660.03
2023-05-05T09:22:43.917Z,654.47
2023-05-05T09:23:43.849Z,659.20
2023-05-05T09:24:43.900Z,658.94
2023-05-05T09:25:43.824Z,656.52
2023-05-05T09:26:43.827Z,659.75
2023-05-05T09:27:43.830Z,657.41
2023-05-05T09:28:43.804Z,656.78
2023-05-05T09:29:43.808Z,655.10
2023-05-05T09:30:43.859Z,656.38
2023-05-05T09:31:43.755Z,651.97
2023-05-05T09:32:43.782Z,658.65
2023-05-05T09:33:43.759Z,657.93
2023-05-05T09:34:43.761Z,657.90
2023-05-05T09:35:43.720Z,660.96
2023-05-05T09:36:43.727Z,682.17
2023-05-05T09:37:43.705Z,698.54
2023-05-05T09:38:43.709Z,711.47
2023-05-05T09:39:43.689Z,718.38
2023-05-05T09:40:43.703Z,669.76
2023-05-05T09:41:43.669Z,648.90
2023-05-05T09:42:43.663Z,644.01
2023-05-05T09:43:44.635Z,649.17
2023-05-05T09:44:43.662Z,655.13
2023-05-05T09:45:43.616Z,660.70
2023-05-05T09:46:43.633Z,660.71
2023-05-05T09:47:43.620Z,657.01
2023-05-05T09:48:43.575Z,651.88
2023-05-05T09:49:43.563Z,648.70
2023-05-05T09:50:43.545Z,649.21
2023-05-05T09:51:43.559Z,647.82
2023-05-05T09:52:43.526Z,647.11
2023-05-05T09:53:43.504Z,646.94
2023-05-05T09:54:43.554Z,646.84
2023-05-05T09:55:43.516Z,645.80
2023-05-05T09:56:43.470Z,646.69
2023-05-05T09:57:43.476Z,648.79
2023-05-05T09:58:43.484Z,649.67
2023-05-05T09:59:43.441Z,651.79
2023-05-05T10:00:43.450Z,652.65
2023-05-05T10:01:43.496Z,653.33
2023-05-05T10:02:43.479Z,652.40
2023-05-05T10:03:44.234Z,650.68
2023-05-05T10:04:43.421Z,648.44
2023-05-05T10:05:43.398Z,647.01
2023-05-05T10:06:43.354Z,646.99
2023-05-05T10:07:43.345Z,647.49
2023-05-05T10:08:43.333Z,647.40
2023-05-05T10:09:43.352Z,648.45
2023-05-05T10:10:43.361Z,650.15
2023-05-05T10:11:43.329Z,651.98
2023-05-05T10:12:43.363Z,653.94
2023-05-05T10:13:43.306Z,656.63
2023-05-05T10:14:45.157Z,659.10
2023-05-05T10:15:43.282Z,663.43
2023-05-05T10:16:43.293Z,666.45
2023-05-05T10:17:53.960Z,668.11
2023-05-05T10:18:44.272Z,671.04
2023-05-05T10:19:43.241Z,681.34
2023-05-05T10:20:43.217Z,713.13
2023-05-05T10:21:43.216Z,920.73
2023-05-05T10:22:43.173Z,867.92
2023-05-05T10:23:44.376Z,811.78
2023-05-05T10:24:43.152Z,859.10
2023-05-05T10:25:43.192Z,777.59
2023-05-05T10:26:43.133Z,761.46
2023-05-05T10:27:43.115Z,773.43
2023-05-05T10:28:43.124Z,723.32
2023-05-05T10:29:43.107Z,713.10
2023-05-05T10:30:43.120Z,715.52
2023-05-05T10:31:43.170Z,704.79
2023-05-05T10:33:43.350Z,675.64
2023-05-05T10:34:43.160Z,680.72
2023-05-05T10:35:43.049Z,773.00
2023-05-05T10:36:43.040Z,782.65
2023-05-05T10:37:43.017Z,825.55
2023-05-05T10:38:43.001Z,864.86
2023-05-05T10:39:43.010Z,922.60
2023-05-05T10:40:42.995Z,931.71
2023-05-05T10:41:43.235Z,873.72
2023-05-05T10:42:42.983Z,847.57
2023-05-05T10:43:42.937Z,847.68
2023-05-05T10:44:42.951Z,837.93
2023-05-05T10:45:43.160Z,821.20
2023-05-05T10:46:42.967Z,802.92
2023-05-05T10:47:42.908Z,786.18
2023-05-05T10:48:42.945Z,774.52
2023-05-05T10:49:42.885Z,763.25
2023-05-05T10:50:42.872Z,758.30
2023-05-05T10:51:42.853Z,763.23
2023-05-05T10:52:42.839Z,797.64
2023-05-05T10:53:42.875Z,856.43
2023-05-05T10:54:42.829Z,877.20
2023-05-05T10:55:42.813Z,904.51
2023-05-05T10:56:42.820Z,951.02
2023-05-05T10:57:42.804Z,949.80
2023-05-05T11:08:31.691Z,916.67
2023-05-05T11:09:31.660Z,924.16
2023-05-05T11:10:31.666Z,924.83
2023-05-05T11:11:31.626Z,928.11
2023-05-05T11:12:31.750Z,933.36
2023-05-05T11:13:31.705Z,931.75
2023-05-05T11:14:31.591Z,929.48
2023-05-05T11:15:31.729Z,918.24
2023-05-05T11:16:31.622Z,910.64
2023-05-05T11:17:31.659Z,902.10
2023-05-05T11:18:31.540Z,893.89
2023-05-05T11:19:31.546Z,886.01
2023-05-05T11:20:31.538Z,874.78
2023-05-05T11:21:31.638Z,852.31
2023-05-05T11:22:31.508Z,810.89
2023-05-05T11:23:31.513Z,747.09
2023-05-05T11:24:31.519Z,680.07
2023-05-05T11:25:31.542Z,657.10
2023-05-05T11:26:31.502Z,647.56
2023-05-05T11:27:31.455Z,642.15
2023-05-05T11:28:31.528Z,639.52
2023-05-05T11:29:31.492Z,634.85
2023-05-05T11:30:31.497Z,629.70
2023-05-05T11:31:31.425Z,627.31
2023-05-05T11:32:31.475Z,627.34
2023-05-05T11:33:31.581Z,625.92
2023-05-05T11:34:31.386Z,622.66
2023-05-05T11:35:31.391Z,619.18
2023-05-05T11:36:31.368Z,616.17
2023-05-05T11:37:31.408Z,615.01
2023-05-05T11:38:31.376Z,614.32
2023-05-05T11:39:31.323Z,615.01
2023-05-05T11:40:31.382Z,621.19
2023-05-05T11:41:31.338Z,632.33
2023-05-05T11:42:31.671Z,641.25
2023-05-05T11:43:31.308Z,648.20
2023-05-05T11:44:31.262Z,652.91
2023-05-05T11:45:31.303Z,656.43
2023-05-05T11:46:31.269Z,662.27
2023-05-05T11:47:31.296Z,665.68
2023-05-05T11:48:31.217Z,670.07
2023-05-05T11:49:31.223Z,672.44
2023-05-05T11:50:31.269Z,675.50
2023-05-05T11:51:31.217Z,678.41
2023-05-05T11:52:31.188Z,679.13
2023-05-05T11:53:31.171Z,680.77
2023-05-05T11:54:31.204Z,682.74
2023-05-05T11:55:31.162Z,685.45
2023-05-05T11:56:31.160Z,688.48
2023-05-05T11:57:31.123Z,691.66
2023-05-05T11:58:31.130Z,694.07
2023-05-05T11:59:31.128Z,698.61
2023-05-05T12:00:31.094Z,701.15
2023-05-05T12:01:31.103Z,705.11
2023-05-05T12:02:31.248Z,710.77
2023-05-05T12:03:31.372Z,716.86
2023-05-05T12:04:31.101Z,725.65
2023-05-05T12:05:31.050Z,739.49
2023-05-05T12:06:31.036Z,759.43
2023-05-05T12:07:31.037Z,772.15
2023-05-05T12:08:30.998Z,785.60
2023-05-05T12:09:30.996Z,784.99
2023-05-05T12:10:30.990Z,794.53
2023-05-05T12:11:31.100Z,816.01
2023-05-05T12:12:31.044Z,848.99
2023-05-05T12:13:32.693Z,882.51
2023-05-05T12:14:30.974Z,903.39
2023-05-05T12:15:30.935Z,922.32
2023-05-05T12:16:36.009Z,936.14
2023-05-05T12:17:30.923Z,946.10
2023-05-05T12:18:30.952Z,955.21
2023-05-05T12:19:30.872Z,961.69
2023-05-05T12:20:30.869Z,968.11
2023-05-05T12:21:30.905Z,973.95
2023-05-05T12:22:30.906Z,976.17
2023-05-05T12:23:30.890Z,979.39
2023-05-05T12:24:30.851Z,982.64
2023-05-05T12:25:30.893Z,986.55
2023-05-05T12:26:30.804Z,983.94
2023-05-05T12:27:30.828Z,980.52
2023-05-05T12:28:30.773Z,979.70
2023-05-05T12:29:31.090Z,974.99
2023-05-05T12:30:30.798Z,964.13
2023-05-05T12:31:30.814Z,944.92
2023-05-05T12:32:30.794Z,928.67
2023-05-05T12:33:30.755Z,920.45
2023-05-05T12:39:25.988Z,965.42
2023-05-05T12:40:25.941Z,960.79
2023-05-05T12:41:25.925Z,959.23
2023-05-05T12:42:25.886Z,957.24
2023-05-05T12:43:25.915Z,957.18
2023-05-05T12:44:27.687Z,952.79